Time;durP1;ratioP1;P1;durP2;ratioP2;P2;SDS_P1;SDS_P2;PMS_P1;PMS_P2;Temp;Humidity;BMP_temperature;BMP_pressure;BME280_temperature;BME280_humidity;BME280_pressure;Samples;Min_cycle;Max_cycle;Signal;HPM_P1;HPM_P2
2022/12/24 00:01:56;;;;;;;20.15;3.60;;;10.00;99.60;;;;;;4970912;28;20078;-96
2022/12/24 00:04:46;;;;;;;19.77;3.05;;;10.00;99.70;;;;;;4988404;28;20054;-96
2022/12/24 00:07:47;;;;;;;;;;;;;;;;;;;;;
2022/12/24 01:03:38;;;;;;;21.13;3.85;;;10.00;98.50;;;;;;5457936;23;20050;-96
2022/12/24 01:06:19;;;;;;;16.17;2.95;;;10.00;98.40;;;;;;4951114;29;20111;-96
2022/12/24 01:09:02;;;;;;;21.95;4.20;;;10.00;98.30;;;;;;4949703;29;20134;-96
2022/12/24 01:16:24;;;;;;;27.75;4.18;;;10.10;98.40;;;;;;4965612;29;20050;-96
2022/12/24 01:18:55;;;;;;;24.40;3.65;;;10.00;98.40;;;;;;4929295;29;20382;-96
2022/12/24 01:21:27;;;;;;;19.63;3.00;;;10.00;98.30;;;;;;4928496;29;20051;-96
2022/12/24 01:23:57;;;;;;;18.77;2.92;;;10.00;98.30;;;;;;4927016;29;20490;-96
2022/12/24 01:26:26;;;;;;;22.15;3.95;;;10.10;98.30;;;;;;4929322;29;20123;-96
2022/12/24 01:28:53;;;;;;;18.75;3.13;;;10.10;98.30;;;;;;4941299;29;20051;-96
2022/12/24 01:31:21;;;;;;;18.92;4.90;;;10.10;98.30;;;;;;4905765;29;20047;-96
2022/12/24 01:33:48;;;;;;;25.40;3.72;;;10.00;98.20;;;;;;4923448;29;20051;-96
2022/12/24 01:36:18;;;;;;;26.30;4.18;;;10.00;98.20;;;;;;4922729;29;20071;-96
2022/12/24 01:38:45;;;;;;;17.70;3.10;;;10.00;98.20;;;;;;4926192;29;20118;-96
2022/12/24 01:44:25;;;;;;;17.65;2.75;;;10.00;98.20;;;;;;4924365;29;20094;-96
2022/12/24 01:47:16;;;;;;;25.13;4.13;;;10.00;98.10;;;;;;4923703;29;20058;-96
2022/12/24 01:49:55;;;;;;;20.17;3.80;;;10.00;98.10;;;;;;4927444;29;20044;-96
2022/12/24 01:52:27;;;;;;;18.67;3.22;;;10.00;98.10;;;;;;4933204;29;20039;-96
2022/12/24 01:55:04;;;;;;;25.45;4.10;;;10.00;98.20;;;;;;4922848;29;20048;-96
2022/12/24 01:57:40;;;;;;;18.75;3.75;;;9.90;98.10;;;;;;4922104;29;20044;-96
2022/12/24 02:00:11;;;;;;;15.63;2.58;;;9.90;98.20;;;;;;4921241;29;20051;-96
2022/12/24 02:02:42;;;;;;;20.10;3.25;;;9.90;98.20;;;;;;4921552;29;20051;-96
2022/12/24 02:05:27;;;;;;;;;;;;;;;;;;;;;
2022/12/24 02:08:12;;;;;;;22.90;3.78;;;9.80;98.30;;;;;;4921060;29;20048;-96
2022/12/24 02:10:40;;;;;;;19.27;3.53;;;9.70;98.30;;;;;;4920937;29;20508;-96
2022/12/24 02:13:07;;;;;;;25.65;4.15;;;9.70;98.40;;;;;;4920716;29;20040;-96
2022/12/24 02:15:55;;;;;;;18.98;2.95;;;9.70;98.50;;;;;;4923677;29;20494;-95
2022/12/24 02:18:50;;;;;;;16.80;2.83;;;9.70;98.40;;;;;;4924140;29;20418;-96
2022/12/24 02:21:29;;;;;;;16.70;3.40;;;9.70;98.40;;;;;;4924105;29;20044;-96
2022/12/24 02:24:31;;;;;;;22.95;4.07;;;9.60;98.50;;;;;;4940179;29;20418;-96
2022/12/24 02:27:28;;;;;;;21.73;4.03;;;9.50;98.50;;;;;;4924165;29;20044;-96
2022/12/24 02:30:15;;;;;;;15.27;2.45;;;9.50;98.50;;;;;;4924412;29;20043;-96
2022/12/24 02:32:57;;;;;;;17.45;2.65;;;9.50;98.60;;;;;;4923795;29;20055;-96
2022/12/24 02:35:44;;;;;;;16.52;2.92;;;9.30;98.70;;;;;;4924124;29;20126;-96
2022/12/24 02:38:41;;;;;;;22.25;3.05;;;9.30;98.80;;;;;;4924870;29;20111;-96
2022/12/24 02:41:18;;;;;;;24.98;3.75;;;9.20;98.80;;;;;;4923867;29;20111;-96
2022/12/24 02:43:47;;;;;;;18.42;3.30;;;9.20;98.90;;;;;;4923572;29;20056;-96
2022/12/24 02:46:21;;;;;;;11.48;2.78;;;9.10;98.90;;;;;;4923678;29;20437;-96
2022/12/24 02:48:49;;;;;;;11.40;2.42;;;9.10;98.90;;;;;;4923645;29;20081;-96
2022/12/24 02:51:22;;;;;;;19.27;2.72;;;9.10;98.90;;;;;;4923769;29;20592;-95
2022/12/24 02:53:50;;;;;;;14.85;2.05;;;9.10;99.00;;;;;;4923473;29;20161;-95
2022/12/24 02:56:29;;;;;;;13.80;1.83;;;9.00;99.00;;;;;;4923750;29;20130;-95
2022/12/24 02:59:18;;;;;;;9.70;1.40;;;9.00;99.30;;;;;;4924007;29;20084;-96
2022/12/24 03:02:00;;;;;;;12.05;2.70;;;9.00;99.10;;;;;;4924037;29;20044;-96
2022/12/24 03:04:39;;;;;;;10.32;1.50;;;8.90;99.10;;;;;;4924481;29;20066;-96
2022/12/24 03:07:37;;;;;;;11.05;1.60;;;8.90;99.20;;;;;;4926455;29;20467;-96
2022/12/24 03:10:36;;;;;;;12.93;2.75;;;8.90;99.20;;;;;;4936379;29;20047;-96
2022/12/24 03:13:11;;;;;;;11.55;1.90;;;8.90;99.20;;;;;;4929981;29;20032;-96
2022/12/24 03:15:40;;;;;;;10.38;1.58;;;8.90;99.20;;;;;;4933436;29;20051;-96
2022/12/24 03:18:10;;;;;;;15.30;1.83;;;8.90;99.20;;;;;;4927167;29;20494;-96
2022/12/24 03:20:46;;;;;;;12.98;1.58;;;8.90;99.20;;;;;;4924529;29;20052;-95
2022/12/24 03:23:14;;;;;;;12.43;2.25;;;8.90;99.20;;;;;;4923279;29;20055;-96
2022/12/24 03:25:44;;;;;;;17.55;2.50;;;8.90;99.20;;;;;;4923326;29;20047;-96
2022/12/24 03:28:13;;;;;;;12.05;2.25;;;8.90;99.20;;;;;;4923380;29;20082;-96
2022/12/24 03:30:44;;;;;;;11.23;1.98;;;8.90;99.30;;;;;;4922925;29;20047;-96
2022/12/24 03:33:14;;;;;;;11.50;2.05;;;8.90;99.20;;;;;;4922969;29;20047;-96
2022/12/24 03:35:42;;;;;;;16.15;2.20;;;8.90;99.20;;;;;;4923532;29;20139;-96
2022/12/24 03:38:09;;;;;;;14.55;1.63;;;8.90;99.20;;;;;;4906963;29;20079;-96
2022/12/24 03:40:39;;;;;;;12.48;1.50;;;9.00;99.20;;;;;;4923499;29;20475;-96
2022/12/24 03:43:09;;;;;;;10.25;1.60;;;9.00;99.20;;;;;;4922538;29;20048;-96
2022/12/24 03:45:36;;;;;;;14.60;1.70;;;9.00;99.20;;;;;;4922482;29;20083;-95
2022/12/24 03:48:03;;;;;;;13.80;1.95;;;9.00;99.20;;;;;;4906729;29;20047;-96
2022/12/24 03:50:31;;;;;;;20.10;2.00;;;9.10;99.30;;;;;;4922464;29;20071;-96
2022/12/24 03:52:58;;;;;;;10.63;1.63;;;9.10;99.20;;;;;;4922415;29;20086;-95
2022/12/24 03:55:26;;;;;;;11.30;2.33;;;9.20;99.20;;;;;;4922109;29;20127;-96
2022/12/24 03:57:55;;;;;;;13.45;2.03;;;9.20;99.10;;;;;;4922942;29;20051;-96
2022/12/24 04:00:25;;;;;;;13.07;2.42;;;9.20;99.10;;;;;;4922641;29;20047;-96
2022/12/24 04:02:53;;;;;;;15.90;2.92;;;9.30;99.10;;;;;;4923014;29;20388;-96
2022/12/24 04:05:21;;;;;;;11.75;2.00;;;9.30;99.10;;;;;;4922511;29;20052;-96
2022/12/24 04:07:51;;;;;;;11.80;1.95;;;9.30;99.10;;;;;;4922454;29;20621;-96
2022/12/24 04:10:20;;;;;;;7.60;1.48;;;9.30;99.10;;;;;;4922383;29;20048;-96
2022/12/24 04:12:57;;;;;;;11.55;2.17;;;9.30;99.10;;;;;;4931455;29;20454;-96
2022/12/24 04:15:25;;;;;;;7.90;2.40;;;9.30;99.10;;;;;;4933757;29;20050;-85
2022/12/24 04:17:52;;;;;;;12.68;2.38;;;9.30;99.10;;;;;;4925100;29;20045;-84
2022/12/24 04:20:19;;;;;;;16.40;3.38;;;9.40;99.10;;;;;;4948278;28;20043;-85
2022/12/24 04:22:46;;;;;;;12.48;2.80;;;9.50;99.10;;;;;;4922828;29;20058;-84
2022/12/24 04:25:14;;;;;;;13.68;2.15;;;9.50;99.10;;;;;;4937268;29;20055;-84
2022/12/24 04:27:41;;;;;;;17.55;3.25;;;9.50;99.10;;;;;;4912567;29;20048;-84
2022/12/24 04:30:08;;;;;;;10.15;2.53;;;9.50;99.00;;;;;;4906782;29;20059;-85
2022/12/24 04:32:36;;;;;;;26.83;3.80;;;9.60;99.00;;;;;;4897923;29;20051;-84
2022/12/24 04:35:04;;;;;;;22.90;3.58;;;9.60;99.00;;;;;;4902147;29;20054;-84
2022/12/24 04:37:34;;;;;;;17.50;3.92;;;9.70;99.10;;;;;;4929737;29;20513;-84
2022/12/24 04:40:01;;;;;;;16.63;3.63;;;9.70;99.00;;;;;;4919071;29;20482;-84
2022/12/24 04:42:28;;;;;;;16.30;3.90;;;9.80;99.00;;;;;;4916050;29;20055;-85
2022/12/24 04:44:55;;;;;;;19.00;3.80;;;9.80;99.00;;;;;;4931369;29;20047;-84
2022/12/24 04:47:22;;;;;;;19.08;4.57;;;9.80;99.00;;;;;;4888448;29;20047;-84
2022/12/24 04:49:50;;;;;;;22.90;4.53;;;9.80;99.00;;;;;;4937466;29;20477;-84
2022/12/24 04:52:17;;;;;;;23.02;4.32;;;9.90;99.00;;;;;;4925569;29;20091;-95
2022/12/24 04:54:44;;;;;;;16.52;4.35;;;9.90;99.00;;;;;;4941212;29;20577;-96
2022/12/24 04:57:12;;;;;;;20.73;4.45;;;9.90;99.00;;;;;;4925873;29;20438;-96
2022/12/24 04:59:39;;;;;;;24.48;5.03;;;10.00;99.00;;;;;;4924729;29;20134;-96
2022/12/24 05:02:07;;;;;;;17.50;3.35;;;10.00;99.00;;;;;;4940911;29;20051;-96
2022/12/24 05:04:34;;;;;;;21.75;4.32;;;10.00;99.00;;;;;;4940624;29;20489;-96
2022/12/24 05:07:02;;;;;;;14.80;3.72;;;10.00;99.10;;;;;;4924310;29;20081;-96
2022/12/24 05:09:29;;;;;;;17.92;4.38;;;10.00;99.10;;;;;;4924318;29;20062;-96
2022/12/24 05:11:56;;;;;;;14.55;3.50;;;10.00;99.10;;;;;;4924427;29;20461;-95
2022/12/24 05:14:23;;;;;;;14.65;3.85;;;10.00;99.10;;;;;;4924700;29;20138;-96
2022/12/24 05:16:50;;;;;;;15.98;3.00;;;10.00;99.20;;;;;;4940922;29;20058;-96
2022/12/24 05:19:21;;;;;;;18.40;3.20;;;10.00;99.20;;;;;;4909622;29;20047;-96
2022/12/24 05:26:20;;;;;;;16.90;2.90;;;10.10;99.20;;;;;;4924904;29;20055;-96
2022/12/24 05:27:21;;;;;;;24.10;4.32;;;10.10;99.20;;;;;;4926783;29;20110;-96
2022/12/24 05:29:49;;;;;;;20.42;4.65;;;10.10;99.20;;;;;;4940345;29;20050;-96
2022/12/24 05:32:17;;;;;;;23.33;3.70;;;10.10;99.20;;;;;;4924634;29;20047;-96
2022/12/24 05:34:44;;;;;;;21.23;3.95;;;10.10;99.20;;;;;;4908508;29;20118;-96
2022/12/24 05:37:11;;;;;;;19.38;3.95;;;10.10;99.20;;;;;;4939752;29;20137;-96
2022/12/24 05:39:38;;;;;;;19.52;3.67;;;10.10;99.20;;;;;;4923914;29;20080;-95
2022/12/24 05:42:05;;;;;;;19.65;4.22;;;10.10;99.20;;;;;;4940039;29;20055;-96
2022/12/24 05:44:33;;;;;;;19.85;4.35;;;10.00;99.30;;;;;;4921144;29;20058;-95
2022/12/24 05:47:00;;;;;;;20.15;3.63;;;10.00;99.30;;;;;;4921019;29;20054;-94
2022/12/24 05:49:27;;;;;;;25.27;4.47;;;10.00;99.40;;;;;;4907535;29;20040;-96
2022/12/24 05:51:55;;;;;;;27.27;4.90;;;10.00;99.40;;;;;;4909741;29;20044;-94
2022/12/24 05:54:22;;;;;;;20.05;5.03;;;10.00;99.40;;;;;;4924615;29;20126;-95
2022/12/24 05:56:50;;;;;;;21.95;4.25;;;10.00;99.50;;;;;;4924552;29;20055;-95
2022/12/24 05:59:17;;;;;;;22.75;4.10;;;10.00;99.50;;;;;;4925284;29;20051;-95
2022/12/24 06:01:46;;;;;;;19.08;3.40;;;10.00;99.50;;;;;;4908992;29;20048;-95
2022/12/24 06:04:14;;;;;;;11.25;3.30;;;10.00;99.50;;;;;;4925586;29;20139;-94
2022/12/24 06:06:42;;;;;;;27.48;5.03;;;10.00;99.50;;;;;;4909338;29;20503;-95
2022/12/24 06:09:10;;;;;;;20.17;3.38;;;10.10;99.60;;;;;;4924313;29;20043;-95
2022/12/24 06:11:38;;;;;;;15.77;4.00;;;10.10;99.60;;;;;;4908750;29;20106;-96
2022/12/24 06:14:05;;;;;;;15.30;3.65;;;10.10;99.60;;;;;;4924958;29;20056;-94
2022/12/24 06:16:32;;;;;;;17.50;3.17;;;10.10;99.60;;;;;;4924981;29;20044;-95
2022/12/24 06:19:02;;;;;;;15.98;2.95;;;10.10;99.60;;;;;;4924705;29;20061;-95
2022/12/24 06:21:29;;;;;;;23.10;4.32;;;10.10;99.60;;;;;;4908449;29;20055;-96
2022/12/24 06:23:57;;;;;;;19.35;4.25;;;10.10;99.70;;;;;;4924853;29;20048;-96
2022/12/24 06:26:26;;;;;;;14.60;2.90;;;10.10;99.60;;;;;;4924581;29;20043;-95
2022/12/24 06:28:54;;;;;;;19.88;4.07;;;10.10;99.60;;;;;;4893364;29;20052;-94
2022/12/24 06:31:22;;;;;;;20.15;4.05;;;10.10;99.60;;;;;;4893555;29;20047;-95
2022/12/24 06:33:51;;;;;;;20.75;4.53;;;10.10;99.60;;;;;;4927846;29;20047;-96
2022/12/24 06:36:21;;;;;;;19.40;4.97;;;10.20;99.70;;;;;;4936147;29;20047;-95
2022/12/24 06:38:54;;;;;;;20.90;4.03;;;10.20;99.70;;;;;;4925184;29;20181;-95
2022/12/24 06:41:24;;;;;;;27.23;3.88;;;10.20;99.70;;;;;;4924986;29;20051;-95
2022/12/24 06:43:54;;;;;;;17.27;3.67;;;10.20;99.70;;;;;;4924827;29;20059;-95
2022/12/24 06:46:24;;;;;;;20.65;3.83;;;10.20;99.70;;;;;;4894251;29;20060;-96
2022/12/24 06:48:53;;;;;;;18.38;4.18;;;10.20;99.70;;;;;;4909737;29;20391;-96
2022/12/24 06:51:21;;;;;;;22.70;4.53;;;10.20;99.60;;;;;;4925113;29;20482;-96
2022/12/24 06:53:50;;;;;;;23.85;5.88;;;10.20;99.60;;;;;;4924638;29;20438;-96
2022/12/24 06:56:18;;;;;;;16.65;4.45;;;10.20;99.60;;;;;;4908885;29;20110;-96
2022/12/24 06:58:52;;;;;;;20.55;3.75;;;10.20;99.60;;;;;;4924400;29;20058;-85
2022/12/24 07:01:30;;;;;;;20.17;4.80;;;10.30;99.60;;;;;;4920041;29;20048;-84
2022/12/24 07:03:58;;;;;;;24.20;5.70;;;10.30;99.60;;;;;;4919760;29;20047;-85
2022/12/24 07:06:27;;;;;;;23.92;4.78;;;10.30;99.60;;;;;;4892517;29;20058;-84
2022/12/24 07:08:55;;;;;;;24.75;5.18;;;10.30;99.50;;;;;;4891760;29;20044;-85
2022/12/24 07:11:24;;;;;;;27.60;5.53;;;10.30;99.50;;;;;;4899223;29;20045;-85
2022/12/24 07:13:51;;;;;;;24.88;5.50;;;10.30;99.50;;;;;;4905324;29;20052;-85
2022/12/24 07:16:19;;;;;;;20.00;5.40;;;10.30;99.50;;;;;;4906544;29;20039;-85
2022/12/24 07:18:47;;;;;;;21.55;5.63;;;10.30;99.50;;;;;;4909689;29;20435;-85
2022/12/24 07:21:17;;;;;;;23.30;5.38;;;10.30;99.50;;;;;;4898790;29;20048;-85
2022/12/24 07:23:45;;;;;;;18.75;5.32;;;10.30;99.50;;;;;;4885637;29;20387;-85
2022/12/24 07:26:12;;;;;;;21.98;5.03;;;10.30;99.50;;;;;;4913544;29;20032;-94
2022/12/24 07:28:40;;;;;;;26.50;5.20;;;10.30;99.50;;;;;;4908872;29;20048;-95
2022/12/24 07:31:07;;;;;;;21.23;5.22;;;10.30;99.50;;;;;;4891947;29;20067;-95
2022/12/24 07:33:34;;;;;;;25.63;5.28;;;10.30;99.50;;;;;;4907563;29;20051;-96
2022/12/24 07:36:17;;;;;;;16.45;5.43;;;10.40;99.50;;;;;;4907687;29;20048;-95
2022/12/24 07:38:44;;;;;;;15.00;4.82;;;10.40;99.40;;;;;;4907594;29;20095;-96
2022/12/24 07:41:14;;;;;;;22.52;4.57;;;10.40;99.40;;;;;;4908210;29;20048;-95
2022/12/24 07:43:41;;;;;;;20.00;4.45;;;10.40;99.40;;;;;;4907188;29;20043;-95
2022/12/24 07:46:09;;;;;;;25.52;4.32;;;10.40;99.40;;;;;;4906938;29;20054;-95
2022/12/24 07:48:37;;;;;;;13.30;4.72;;;10.40;99.40;;;;;;4907088;29;20055;-95
2022/12/24 07:51:04;;;;;;;25.88;4.80;;;10.40;99.30;;;;;;4922452;29;20114;-96
2022/12/24 07:53:32;;;;;;;17.30;4.68;;;10.40;99.30;;;;;;4906779;29;20517;-95
2022/12/24 07:55:59;;;;;;;19.83;4.55;;;10.50;99.30;;;;;;4922627;29;20059;-94
2022/12/24 07:58:26;;;;;;;14.10;3.22;;;10.40;99.20;;;;;;4892227;29;20079;-93
2022/12/24 08:01:00;;;;;;;16.48;3.20;;;10.50;99.20;;;;;;4920683;29;20138;-91
2022/12/24 08:03:29;;;;;;;21.25;4.63;;;10.50;99.20;;;;;;4877310;29;20060;-90
2022/12/24 08:05:57;;;;;;;18.83;4.32;;;10.40;99.20;;;;;;4910092;29;20110;-90
2022/12/24 08:08:24;;;;;;;19.88;4.50;;;10.50;99.10;;;;;;4902197;29;20509;-90
2022/12/24 08:10:52;;;;;;;24.65;4.40;;;10.50;99.10;;;;;;4935308;28;20047;-91
2022/12/24 08:13:19;;;;;;;17.77;4.32;;;10.50;99.10;;;;;;4901170;29;20098;-91
2022/12/24 08:15:46;;;;;;;22.48;4.80;;;10.50;99.00;;;;;;4909494;29;20044;-91
2022/12/24 08:18:14;;;;;;;28.05;5.78;;;10.50;98.90;;;;;;4925110;29;20054;-91
2022/12/24 08:20:41;;;;;;;23.50;4.45;;;10.50;98.90;;;;;;4917465;29;20546;-85
2022/12/24 08:23:08;;;;;;;26.45;4.40;;;10.50;98.90;;;;;;4905476;29;20099;-85
2022/12/24 08:25:38;;;;;;;18.40;4.32;;;10.50;98.90;;;;;;4954118;28;20047;-85
2022/12/24 08:28:05;;;;;;;24.30;5.43;;;10.50;98.80;;;;;;4924783;29;20047;-83
2022/12/24 08:30:33;;;;;;;16.33;3.28;;;10.50;98.80;;;;;;4910855;28;20040;-84
2022/12/24 08:33:00;;;;;;;19.95;3.55;;;10.50;98.80;;;;;;4922684;29;20489;-84
2022/12/24 08:35:27;;;;;;;21.52;4.32;;;10.50;98.80;;;;;;4937457;28;20074;-84
2022/12/24 08:37:54;;;;;;;21.52;4.55;;;10.50;98.70;;;;;;4903195;29;20406;-84
2022/12/24 08:40:24;;;;;;;20.40;4.20;;;10.50;98.70;;;;;;4896807;29;20079;-84
2022/12/24 08:42:51;;;;;;;20.55;4.32;;;10.60;98.70;;;;;;4912341;29;20047;-85
2022/12/24 08:45:20;;;;;;;27.42;6.38;;;10.60;98.90;;;;;;4904914;28;20159;-84
2022/12/24 08:47:48;;;;;;;22.60;4.80;;;10.60;98.50;;;;;;4937622;29;20047;-84
2022/12/24 08:50:15;;;;;;;19.98;5.25;;;10.60;98.40;;;;;;4921224;29;20058;-84
2022/12/24 08:52:42;;;;;;;16.27;3.95;;;10.60;98.40;;;;;;4925378;29;20040;-84
2022/12/24 08:55:09;;;;;;;18.88;4.43;;;10.60;98.40;;;;;;4884656;29;20040;-84
2022/12/24 08:57:37;;;;;;;19.48;3.92;;;10.60;98.50;;;;;;4932204;29;20032;-84
2022/12/24 09:00:05;;;;;;;21.73;4.38;;;10.60;98.50;;;;;;4929521;29;20069;-83
2022/12/24 09:02:32;;;;;;;22.02;5.03;;;10.60;98.40;;;;;;4915662;29;20142;-85
2022/12/24 09:05:00;;;;;;;20.42;4.32;;;10.60;98.40;;;;;;4911966;29;20060;-84
2022/12/24 09:07:30;;;;;;;18.65;4.65;;;10.60;98.60;;;;;;4921302;29;20050;-84
2022/12/24 09:09:57;;;;;;;16.67;3.75;;;10.60;98.30;;;;;;4913275;29;20519;-83
2022/12/24 09:12:24;;;;;;;14.23;3.70;;;10.70;98.30;;;;;;4919515;29;20040;-84
2022/12/24 09:14:51;;;;;;;19.77;4.40;;;10.70;98.40;;;;;;4919530;29;20043;-83
2022/12/24 09:17:18;;;;;;;20.92;5.22;;;10.70;98.30;;;;;;4937733;29;20083;-83
2022/12/24 09:19:45;;;;;;;20.52;4.13;;;10.70;98.50;;;;;;4902730;29;20119;-84
2022/12/24 09:22:13;;;;;;;23.15;6.40;;;10.70;98.20;;;;;;4919867;29;20082;-83
2022/12/24 09:24:40;;;;;;;24.92;4.40;;;10.70;98.10;;;;;;4896499;29;20051;-84
2022/12/24 09:27:07;;;;;;;26.08;5.75;;;10.80;98.20;;;;;;4900320;29;20051;-81
2022/12/24 09:29:35;;;;;;;23.77;5.10;;;10.80;98.10;;;;;;4914450;29;20051;-81
2022/12/24 09:32:03;;;;;;;22.60;5.20;;;10.80;98.10;;;;;;4919260;29;20040;-83
2022/12/24 09:34:30;;;;;;;19.75;5.63;;;10.80;98.10;;;;;;4903260;29;20044;-83
2022/12/24 09:36:58;;;;;;;16.42;4.40;;;10.80;98.10;;;;;;4921318;29;20043;-83
2022/12/24 09:39:26;;;;;;;25.48;5.30;;;10.80;98.10;;;;;;4935357;29;20036;-83
2022/12/24 09:42:18;;;;;;;17.35;5.10;;;10.80;98.10;;;;;;4902689;29;20115;-83
2022/12/24 09:45:01;;;;;;;16.85;4.28;;;10.90;98.10;;;;;;4929965;29;20043;-83
2022/12/24 09:47:42;;;;;;;17.52;4.55;;;10.90;98.10;;;;;;4918159;29;20075;-83
2022/12/24 09:50:31;;;;;;;15.90;4.60;;;10.90;98.10;;;;;;4917490;29;20066;-83
2022/12/24 09:53:01;;;;;;;20.15;5.40;;;10.90;98.00;;;;;;4915743;29;20561;-83
2022/12/24 09:55:37;;;;;;;23.35;5.28;;;10.90;98.00;;;;;;4935340;29;20040;-83
2022/12/24 09:58:06;;;;;;;14.15;3.85;;;11.00;98.00;;;;;;4926498;29;20053;-83
2022/12/24 10:00:37;;;;;;;20.70;5.75;;;11.00;98.00;;;;;;4908720;29;20054;-83
2022/12/24 10:03:17;;;;;;;16.98;4.95;;;11.00;97.90;;;;;;4913728;29;20534;-83
2022/12/24 10:05:54;;;;;;;17.00;5.07;;;11.10;97.80;;;;;;4931349;29;20058;-83
2022/12/24 10:08:30;;;;;;;21.95;5.43;;;11.00;97.70;;;;;;4917818;29;20058;-84
2022/12/24 10:11:34;;;;;;;24.58;6.38;;;11.00;97.60;;;;;;4915907;29;20052;-84
2022/12/24 10:14:24;;;;;;;21.27;5.00;;;11.00;97.50;;;;;;4852331;29;20136;-83
2022/12/24 10:17:19;;;;;;;18.95;5.03;;;11.00;97.50;;;;;;4924380;29;20044;-83
2022/12/24 10:20:11;;;;;;;21.63;5.05;;;11.10;97.50;;;;;;4931422;29;20076;-83
2022/12/24 10:22:53;;;;;;;23.67;6.70;;;11.10;97.40;;;;;;4918954;29;20142;-83
2022/12/24 10:25:22;;;;;;;;;;;11.10;97.40;;;;;;4931557;29;20040;-83
2022/12/24 10:27:53;;;;;;;29.00;5.80;;;11.00;97.50;;;;;;4917570;29;19923;-83
2022/12/24 10:30:22;;;;;;;26.10;5.40;;;11.00;97.40;;;;;;4931334;29;20095;-83
2022/12/24 10:32:54;;;;;;;18.70;5.75;;;11.00;97.30;;;;;;4928320;29;20081;-83
2022/12/24 10:35:46;;;;;;;23.88;4.47;;;11.10;97.30;;;;;;4948613;29;20074;-83
2022/12/24 10:38:13;;;;;;;19.63;4.57;;;11.10;97.30;;;;;;4911758;29;20119;-83
2022/12/24 10:40:44;;;;;;;29.98;5.88;;;11.20;97.20;;;;;;4926576;29;20069;-83
2022/12/24 10:43:18;;;;;;;21.95;5.63;;;11.20;97.10;;;;;;4928910;29;20129;-83
2022/12/24 10:45:59;;;;;;;20.92;3.92;;;11.30;97.00;;;;;;4926298;29;20121;-83
2022/12/24 10:48:39;;;;;;;16.23;3.75;;;11.40;96.90;;;;;;4895821;29;20055;-83
2022/12/24 10:51:46;;;;;;;25.20;4.72;;;11.40;96.80;;;;;;4935314;29;20061;-83
2022/12/24 10:54:17;;;;;;;20.00;4.72;;;11.50;96.70;;;;;;4921006;29;20123;-83
2022/12/24 10:56:58;;;;;;;19.85;4.93;;;11.50;96.60;;;;;;4931971;29;20047;-83
2022/12/24 10:59:27;;;;;;;17.08;4.68;;;11.50;96.50;;;;;;4926773;29;20068;-83
2022/12/24 11:01:59;;;;;;;23.27;4.38;;;11.60;96.60;;;;;;4911939;29;20047;-83
2022/12/24 11:04:44;;;;;;;21.70;4.70;;;11.60;96.50;;;;;;4920001;29;20143;-84
2022/12/24 11:07:18;;;;;;;23.63;5.60;;;11.60;96.40;;;;;;4923231;29;20427;-83
2022/12/24 11:09:54;;;;;;;23.20;4.68;;;11.50;96.50;;;;;;4924080;29;20047;-84
2022/12/24 11:12:24;;;;;;;23.92;5.43;;;11.50;96.30;;;;;;4922603;29;20102;-83
2022/12/24 11:15:18;;;;;;;18.10;5.18;;;11.50;96.20;;;;;;4938041;29;20066;-83
2022/12/24 11:18:13;;;;;;;18.52;4.25;;;11.50;96.20;;;;;;4933534;29;20512;-83
2022/12/24 11:20:47;;;;;;;16.20;3.60;;;11.50;96.10;;;;;;4933335;29;20058;-83
2022/12/24 11:23:16;;;;;;;16.90;3.90;;;11.50;96.30;;;;;;4914116;29;20052;-83
2022/12/24 11:25:48;;;;;;;15.93;4.50;;;11.50;96.30;;;;;;4928709;29;20047;-83
2022/12/24 11:28:25;;;;;;;18.73;3.95;;;11.50;96.20;;;;;;4933083;29;20114;-84
2022/12/24 11:30:59;;;;;;;20.73;4.38;;;11.50;96.10;;;;;;4909767;29;20111;-83
2022/12/24 11:33:29;;;;;;;20.23;4.82;;;11.40;95.90;;;;;;4950027;29;20506;-83
2022/12/24 11:36:05;;;;;;;17.02;3.55;;;11.40;96.00;;;;;;4947757;29;20078;-83
2022/12/24 11:38:34;;;;;;;15.65;4.07;;;11.40;96.00;;;;;;4922478;29;20051;-83
2022/12/24 11:41:04;;;;;;;15.95;3.83;;;11.40;96.00;;;;;;4915573;29;20056;-83
2022/12/24 11:43:44;;;;;;;18.80;3.30;;;11.40;96.10;;;;;;4936343;29;20463;-83
2022/12/24 11:46:27;;;;;;;24.83;3.83;;;11.40;96.10;;;;;;4930421;29;20058;-84
2022/12/24 11:49:28;;;;;;;16.80;3.67;;;11.40;96.00;;;;;;4930126;29;20078;-84
2022/12/24 11:52:13;;;;;;;13.23;3.50;;;11.40;96.00;;;;;;4913554;29;20050;-83
2022/12/24 11:55:00;;;;;;;21.58;4.03;;;11.40;96.00;;;;;;4927881;29;20406;-83
2022/12/24 11:57:49;;;;;;;18.17;3.35;;;11.50;95.90;;;;;;4933110;29;20056;-91
2022/12/24 12:00:17;;;;;;;21.80;4.25;;;11.50;95.70;;;;;;4919799;29;20286;-86
2022/12/24 12:03:03;;;;;;;18.27;3.53;;;11.50;95.60;;;;;;4930430;29;20051;-85
2022/12/24 12:05:35;;;;;;;11.50;2.33;;;11.50;95.40;;;;;;4937942;29;20127;-85
2022/12/24 12:08:14;;;;;;;19.08;3.03;;;11.50;95.50;;;;;;4907787;29;20059;-84
2022/12/24 12:10:44;;;;;;;18.45;3.90;;;11.50;95.30;;;;;;4932840;29;20043;-85
2022/12/24 12:13:13;;;;;;;23.85;4.88;;;11.50;95.10;;;;;;4919441;29;20044;-84
2022/12/24 12:15:54;;;;;;;17.67;3.95;;;11.60;95.00;;;;;;4933119;29;20141;-85
2022/12/24 12:18:35;;;;;;;18.92;4.25;;;11.60;94.90;;;;;;4924142;29;20051;-85
2022/12/24 12:21:18;;;;;;;15.35;4.10;;;11.60;94.70;;;;;;4933018;29;20058;-90
2022/12/24 12:23:50;;;;;;;13.25;2.92;;;11.60;94.80;;;;;;4925870;29;20080;-89
2022/12/24 12:26:24;;;;;;;15.25;3.30;;;11.50;94.90;;;;;;4935092;29;20127;-88
2022/12/24 12:29:51;;;;;;;15.93;3.75;;;11.50;94.80;;;;;;4925386;29;20056;-87
2022/12/24 12:32:39;;;;;;;18.27;2.53;;;11.50;94.80;;;;;;4937700;28;20074;-87
2022/12/24 12:35:38;;;;;;;16.52;4.72;;;11.50;94.70;;;;;;4954081;29;20048;-87
2022/12/24 12:38:28;;;;;;;13.60;3.67;;;11.40;94.80;;;;;;4916397;29;20530;-86
2022/12/24 12:41:47;;;;;;;21.67;3.47;;;11.40;94.80;;;;;;4902867;29;20055;-88
2022/12/24 12:45:01;;;;;;;15.68;3.10;;;11.40;94.90;;;;;;4911170;29;20051;-93
2022/12/24 12:48:15;;;;;;;13.93;3.15;;;11.40;94.90;;;;;;4922485;29;20059;-88
2022/12/24 12:50:59;;;;;;;13.10;2.60;;;11.30;94.90;;;;;;4931778;29;20054;-94
2022/12/24 12:53:49;;;;;;;15.73;2.85;;;11.30;95.10;;;;;;4939664;29;20047;-93
2022/12/24 12:56:31;;;;;;;10.68;2.47;;;11.20;95.10;;;;;;4917969;29;20127;-87
2022/12/24 12:59:20;;;;;;;13.45;2.45;;;11.20;95.10;;;;;;4920219;29;20113;-87
2022/12/24 13:02:38;;;;;;;;;;;;;;;;;;;;;
2022/12/24 13:05:34;;;;;;;8.60;1.63;;;11.20;95.00;;;;;;4939038;29;20047;-86
2022/12/24 13:08:13;;;;;;;12.63;2.65;;;11.20;94.90;;;;;;4938986;29;20055;-90
2022/12/24 13:11:02;;;;;;;13.48;1.92;;;11.20;95.00;;;;;;4901972;29;20048;-89
2022/12/24 13:13:53;;;;;;;15.10;3.03;;;11.30;95.00;;;;;;4938689;29;20047;-91
2022/12/24 13:16:51;;;;;;;14.93;2.70;;;11.30;94.80;;;;;;4938711;29;20040;-88
2022/12/24 13:19:36;;;;;;;18.63;2.60;;;11.40;94.60;;;;;;4922583;29;20047;-89
2022/12/24 13:22:04;;;;;;;14.95;1.67;;;11.50;94.30;;;;;;4920808;29;20098;-90
2022/12/24 13:24:32;;;;;;;9.23;2.08;;;11.50;94.30;;;;;;4904012;29;20051;-91
2022/12/24 13:27:25;;;;;;;;;;;;;;;;;;;;;
2022/12/24 13:30:32;;;;;;;16.02;2.83;;;11.50;94.00;;;;;;4937068;29;20051;-90
2022/12/24 13:32:59;;;;;;;17.88;4.10;;;11.40;93.90;;;;;;4923631;29;20102;-88
2022/12/24 13:35:30;;;;;;;13.85;2.35;;;11.30;93.80;;;;;;4904226;29;20047;-87
2022/12/24 13:38:25;;;;;;;14.00;2.80;;;11.30;93.70;;;;;;4918402;29;20612;-85
2022/12/24 13:40:53;;;;;;;14.23;2.45;;;11.30;93.80;;;;;;4917891;29;20047;-84
2022/12/24 13:43:21;;;;;;;11.93;2.13;;;11.30;93.70;;;;;;4929081;29;20510;-89
2022/12/24 13:45:50;;;;;;;20.20;2.58;;;11.30;93.70;;;;;;4903923;29;20058;-84
2022/12/24 13:48:27;;;;;;;17.50;3.13;;;11.30;93.40;;;;;;4927318;29;20051;-86
2022/12/24 13:51:17;;;;;;;15.35;3.05;;;11.30;93.40;;;;;;4926520;29;20518;-85
2022/12/24 13:53:46;;;;;;;16.75;2.08;;;11.10;93.50;;;;;;4921772;29;20043;-88
2022/12/24 13:56:16;;;;;;;16.15;2.35;;;11.00;93.60;;;;;;4938189;29;20043;-87
2022/12/24 13:59:24;;;;;;;14.50;2.55;;;10.90;93.70;;;;;;4918046;29;20060;-86
2022/12/24 14:01:51;;;;;;;14.57;2.50;;;10.90;93.80;;;;;;4917741;29;20047;-87
2022/12/24 14:04:33;;;;;;;9.30;1.83;;;10.90;93.90;;;;;;4921007;29;20532;-86
2022/12/24 14:07:03;;;;;;;12.35;2.30;;;11.00;93.90;;;;;;4929408;29;20429;-86
2022/12/24 14:09:34;;;;;;;17.45;1.58;;;11.00;94.20;;;;;;4922529;29;20141;-86
2022/12/24 14:12:01;;;;;;;9.13;2.08;;;10.90;93.90;;;;;;4913654;29;20051;-89
2022/12/24 14:14:30;;;;;;;7.70;2.08;;;10.90;94.00;;;;;;4922295;29;20058;-85
2022/12/24 14:17:12;;;;;;;12.82;1.70;;;10.90;94.10;;;;;;4921476;29;20052;-85
2022/12/24 14:19:42;;;;;;;9.57;1.83;;;10.80;94.20;;;;;;4926163;29;20102;-86
2022/12/24 14:22:21;;;;;;;7.93;1.30;;;10.80;94.30;;;;;;4940549;29;20174;-86
2022/12/24 14:25:15;;;;;;;8.48;1.50;;;10.80;94.40;;;;;;4932870;29;20048;-86
2022/12/24 14:27:46;;;;;;;7.32;1.70;;;10.70;94.50;;;;;;4932519;29;20477;-86